Time;durP1;ratioP1;P1;durP2;ratioP2;P2;SDS_P1;SDS_P2;PMS_P1;PMS_P2;Temp;Humidity;BMP_temperature;BMP_pressure;BME280_temperature;BME280_humidity;BME280_pressure;Samples;Min_cycle;Max_cycle;Signal;HPM_P1;HPM_P2
2023/09/11 00:00:25;;;;;;;6.87;6.13;;;24.60;60.30;;;;;;5010823;28;20837;-71
2023/09/11 00:02:51;;;;;;;7.10;6.30;;;24.60;59.80;;;;;;5010754;28;20658;-71
2023/09/11 00:05:17;;;;;;;6.80;5.33;;;24.60;59.80;;;;;;5010722;28;20199;-71
2023/09/11 00:07:42;;;;;;;7.23;6.60;;;24.60;59.80;;;;;;5010767;28;20588;-71
2023/09/11 00:10:08;;;;;;;6.30;5.70;;;24.60;59.80;;;;;;5010588;28;20192;-71
2023/09/11 00:12:34;;;;;;;5.90;5.40;;;24.60;59.70;;;;;;5010639;28;20291;-71
2023/09/11 00:14:59;;;;;;;6.03;5.53;;;24.60;59.70;;;;;;5010649;28;20495;-71
2023/09/11 00:17:25;;;;;;;6.50;5.60;;;24.60;59.80;;;;;;5010624;28;20173;-70
2023/09/11 00:19:50;;;;;;;6.40;5.90;;;24.60;59.70;;;;;;5010513;28;20197;-71
2023/09/11 00:22:16;;;;;;;6.07;5.60;;;24.60;59.80;;;;;;5010503;28;20661;-70
2023/09/11 00:24:42;;;;;;;6.00;5.47;;;24.60;59.80;;;;;;5010831;28;20288;-71
2023/09/11 00:27:07;;;;;;;6.20;5.70;;;24.60;59.80;;;;;;5012507;28;20684;-71
2023/09/11 00:29:33;;;;;;;6.80;6.23;;;24.60;59.80;;;;;;4996281;28;20254;-71
2023/09/11 00:31:58;;;;;;;6.10;5.60;;;24.60;59.70;;;;;;5013893;28;20283;-72
2023/09/11 00:34:24;;;;;;;6.13;5.63;;;24.60;59.70;;;;;;5013862;28;20246;-71
2023/09/11 00:36:49;;;;;;;5.90;5.40;;;24.60;59.60;;;;;;5014194;28;20175;-71
2023/09/11 00:39:15;;;;;;;6.27;5.77;;;24.60;59.60;;;;;;5014067;28;20259;-71
2023/09/11 00:41:42;;;;;;;6.57;5.77;;;24.60;59.60;;;;;;5013774;28;20172;-71
2023/09/11 00:44:08;;;;;;;6.70;6.10;;;24.60;59.60;;;;;;5013754;28;20203;-71
2023/09/11 00:46:34;;;;;;;6.40;5.73;;;24.60;59.60;;;;;;5013796;28;20447;-71
2023/09/11 00:49:00;;;;;;;5.93;5.43;;;24.60;59.40;;;;;;5013408;28;20208;-71
2023/09/11 00:51:26;;;;;;;6.20;5.60;;;24.60;59.70;;;;;;5013441;28;20972;-71
2023/09/11 00:53:53;;;;;;;6.03;5.53;;;24.60;59.40;;;;;;5012184;28;20173;-71
2023/09/11 00:56:19;;;;;;;6.03;5.50;;;24.60;59.30;;;;;;5013443;28;20431;-71
2023/09/11 00:58:46;;;;;;;5.90;5.40;;;24.60;59.20;;;;;;5013368;28;20438;-71
2023/09/11 01:01:12;;;;;;;5.77;5.27;;;24.60;59.20;;;;;;5012033;28;20805;-71
2023/09/11 01:03:38;;;;;;;6.33;5.73;;;24.60;59.20;;;;;;5013318;28;20408;-71
2023/09/11 01:06:04;;;;;;;5.60;5.10;;;24.60;59.20;;;;;;5013424;28;20426;-71
2023/09/11 01:08:30;;;;;;;8.03;5.40;;;24.60;59.10;;;;;;5013210;28;20677;-71
2023/09/11 01:10:56;;;;;;;6.37;5.77;;;24.60;59.10;;;;;;5013191;28;20219;-71
2023/09/11 01:13:23;;;;;;;6.03;5.50;;;24.60;59.10;;;;;;5013204;28;20412;-71
2023/09/11 01:16:25;;;;;;;5.90;5.40;;;24.60;59.00;;;;;;5011810;28;20427;-71
2023/09/11 01:18:58;;;;;;;6.07;5.50;;;24.60;59.00;;;;;;5011672;28;20534;-71
2023/09/11 01:21:44;;;;;;;6.57;5.97;;;24.50;58.90;;;;;;5013367;28;20407;-71
2023/09/11 01:24:31;;;;;;;6.53;5.10;;;24.60;58.90;;;;;;5012997;28;20411;-71
2023/09/11 01:27:03;;;;;;;6.20;5.60;;;24.50;58.80;;;;;;5012946;28;20772;-71
2023/09/11 01:29:33;;;;;;;5.73;5.33;;;24.50;58.80;;;;;;5012849;28;21013;-72
2023/09/11 01:32:02;;;;;;;5.67;5.17;;;24.50;58.80;;;;;;5013056;28;20451;-71
2023/09/11 01:34:27;;;;;;;6.73;6.10;;;24.50;58.80;;;;;;5012767;28;20414;-71
2023/09/11 01:36:53;;;;;;;4.90;4.50;;;24.50;58.70;;;;;;5012348;28;20914;-71
2023/09/11 01:39:19;;;;;;;6.20;5.60;;;24.50;58.70;;;;;;5012728;28;20188;-71
2023/09/11 01:41:46;;;;;;;5.80;5.40;;;24.50;58.70;;;;;;5012644;28;20175;-71
2023/09/11 01:44:29;;;;;;;5.37;4.87;;;24.50;58.60;;;;;;5012642;28;20403;-71
2023/09/11 01:46:57;;;;;;;6.00;5.50;;;24.50;58.70;;;;;;5012522;28;20414;-71
2023/09/11 01:49:24;;;;;;;5.97;5.37;;;24.50;58.60;;;;;;5012319;28;20501;-71
2023/09/11 01:51:52;;;;;;;5.80;5.07;;;24.50;58.70;;;;;;5012634;28;20801;-71
2023/09/11 01:54:19;;;;;;;5.87;5.37;;;24.50;58.70;;;;;;5012440;28;20403;-71
2023/09/11 01:56:44;;;;;;;6.23;5.73;;;24.50;58.70;;;;;;5012390;28;20403;-71
2023/09/11 01:59:13;;;;;;;5.87;5.40;;;24.50;58.70;;;;;;5012318;28;20427;-71
2023/09/11 02:01:39;;;;;;;5.67;5.10;;;24.50;58.70;;;;;;5012618;28;20176;-71
2023/09/11 02:04:05;;;;;;;6.20;5.60;;;24.50;58.60;;;;;;5012235;28;20530;-71
2023/09/11 02:06:30;;;;;;;5.10;4.60;;;24.50;58.60;;;;;;5012689;28;20215;-71
2023/09/11 02:08:56;;;;;;;4.97;4.57;;;24.50;58.60;;;;;;5012025;28;20764;-71
2023/09/11 02:11:22;;;;;;;5.20;4.80;;;24.50;58.60;;;;;;5012101;28;20200;-71
2023/09/11 02:13:47;;;;;;;6.10;5.50;;;24.50;58.60;;;;;;5012048;28;20170;-72
2023/09/11 02:16:13;;;;;;;4.97;4.53;;;24.50;58.60;;;;;;5012080;28;20203;-71
2023/09/11 02:18:39;;;;;;;5.30;4.90;;;24.50;58.70;;;;;;5010664;28;20667;-71
2023/09/11 02:21:05;;;;;;;4.97;4.57;;;24.50;58.60;;;;;;5011911;28;20415;-72
2023/09/11 02:23:31;;;;;;;6.47;5.43;;;24.50;58.60;;;;;;5011983;28;20928;-71
2023/09/11 02:25:57;;;;;;;5.30;4.80;;;24.50;58.60;;;;;;5011880;28;20176;-71
2023/09/11 02:28:22;;;;;;;5.60;5.10;;;24.50;58.60;;;;;;5011823;28;20192;-71
2023/09/11 02:30:48;;;;;;;5.87;5.37;;;24.50;58.60;;;;;;5010980;28;20208;-71
2023/09/11 02:33:14;;;;;;;5.60;5.10;;;24.50;58.60;;;;;;5011798;28;20165;-71
2023/09/11 02:35:39;;;;;;;6.80;6.20;;;24.50;58.70;;;;;;5011738;28;20493;-71
2023/09/11 02:38:05;;;;;;;6.00;5.50;;;24.50;58.70;;;;;;5011578;28;20173;-71
2023/09/11 02:40:31;;;;;;;7.00;6.40;;;24.50;58.70;;;;;;5011974;28;20180;-71
2023/09/11 02:42:56;;;;;;;6.67;6.07;;;24.50;58.60;;;;;;5011616;28;20222;-72
2023/09/11 02:45:22;;;;;;;5.70;5.23;;;24.50;58.60;;;;;;5011604;28;20183;-70
2023/09/11 02:47:47;;;;;;;6.37;5.87;;;24.50;58.60;;;;;;5011575;28;20261;-71
2023/09/11 02:50:13;;;;;;;6.50;6.00;;;24.50;58.60;;;;;;5010593;28;20215;-71
2023/09/11 02:52:40;;;;;;;6.07;5.47;;;24.50;58.60;;;;;;5019942;28;20203;-71
2023/09/11 02:55:08;;;;;;;6.37;5.87;;;24.50;58.50;;;;;;5031235;28;20536;-71
2023/09/11 02:57:34;;;;;;;6.50;5.90;;;24.50;58.50;;;;;;5029895;28;20930;-71
2023/09/11 03:00:01;;;;;;;6.13;5.60;;;24.50;58.50;;;;;;5030942;28;20517;-71
2023/09/11 03:02:27;;;;;;;6.37;5.83;;;24.50;58.50;;;;;;5031072;28;20582;-71
2023/09/11 03:04:52;;;;;;;6.83;5.80;;;24.50;58.40;;;;;;5031033;28;20501;-71
2023/09/11 03:07:18;;;;;;;6.10;5.60;;;24.50;58.40;;;;;;5030955;28;20526;-71
2023/09/11 03:09:44;;;;;;;6.30;5.63;;;24.50;58.40;;;;;;5029632;28;20204;-71
2023/09/11 03:12:10;;;;;;;6.70;6.10;;;24.50;58.40;;;;;;5031191;28;20203;-71
2023/09/11 03:14:36;;;;;;;7.40;6.70;;;24.50;58.30;;;;;;5029597;28;20410;-71
2023/09/11 03:17:02;;;;;;;6.60;6.00;;;24.50;58.30;;;;;;5029564;28;20938;-71
2023/09/11 03:19:27;;;;;;;6.80;6.20;;;24.50;58.30;;;;;;5030881;28;20191;-71
2023/09/11 03:21:54;;;;;;;5.80;5.30;;;24.50;58.30;;;;;;5030804;28;20179;-71
2023/09/11 03:24:20;;;;;;;6.43;5.83;;;24.40;58.20;;;;;;5030834;28;20176;-71
2023/09/11 03:26:46;;;;;;;6.40;5.90;;;24.40;58.20;;;;;;5030857;28;20417;-71
2023/09/11 03:29:12;;;;;;;6.83;6.23;;;24.40;58.10;;;;;;5030775;28;20230;-71
2023/09/11 03:31:37;;;;;;;7.30;6.60;;;24.50;58.20;;;;;;5030623;28;20494;-72
2023/09/11 03:34:03;;;;;;;6.60;6.00;;;24.40;58.00;;;;;;5029351;28;20175;-71
2023/09/11 03:36:29;;;;;;;6.27;5.77;;;24.40;58.00;;;;;;5012920;28;20176;-71
2023/09/11 03:38:54;;;;;;;6.37;5.87;;;24.50;58.00;;;;;;5030661;28;20199;-71
2023/09/11 03:41:21;;;;;;;5.97;5.40;;;24.40;58.00;;;;;;5030721;28;20218;-71
2023/09/11 03:43:47;;;;;;;6.50;6.00;;;24.40;57.90;;;;;;5030639;28;20191;-70
2023/09/11 03:46:12;;;;;;;6.03;5.53;;;24.40;57.90;;;;;;5030386;28;21154;-71
2023/09/11 03:48:38;;;;;;;6.50;5.90;;;24.40;57.90;;;;;;5030476;28;20216;-71
2023/09/11 03:51:04;;;;;;;6.10;5.60;;;24.40;57.90;;;;;;5029234;28;20665;-71
2023/09/11 03:53:29;;;;;;;7.47;6.77;;;24.40;57.90;;;;;;5030500;28;20587;-72
2023/09/11 03:55:55;;;;;;;6.50;5.63;;;24.40;57.90;;;;;;5030590;28;20206;-71
2023/09/11 03:58:20;;;;;;;6.10;5.50;;;24.40;57.90;;;;;;5030439;28;20198;-71
2023/09/11 04:00:46;;;;;;;7.10;6.50;;;24.40;57.90;;;;;;5032175;28;20221;-71
2023/09/11 04:03:12;;;;;;;6.47;5.90;;;24.40;57.90;;;;;;5033171;28;20242;-71
2023/09/11 04:05:38;;;;;;;7.00;6.30;;;24.40;57.90;;;;;;5034490;28;20534;-71
2023/09/11 04:08:03;;;;;;;7.20;6.10;;;24.40;57.90;;;;;;5034098;28;20450;-71
2023/09/11 04:10:29;;;;;;;7.43;6.23;;;24.40;57.90;;;;;;5034097;28;20637;-71
2023/09/11 04:12:55;;;;;;;6.00;5.50;;;24.40;57.80;;;;;;5034066;28;20620;-71
2023/09/11 04:15:21;;;;;;;6.13;5.57;;;24.40;57.90;;;;;;5034072;28;20414;-71
2023/09/11 04:17:46;;;;;;;6.50;5.90;;;24.40;57.80;;;;;;5034066;28;20644;-71
2023/09/11 04:20:12;;;;;;;6.97;6.37;;;24.40;57.80;;;;;;5033894;28;20237;-71
2023/09/11 04:22:37;;;;;;;7.17;6.57;;;24.40;57.80;;;;;;5033899;28;20176;-71
2023/09/11 04:25:04;;;;;;;6.53;5.93;;;24.40;57.80;;;;;;5033960;28;20176;-71
2023/09/11 04:27:29;;;;;;;6.63;6.03;;;24.40;57.80;;;;;;5033849;28;20225;-70
2023/09/11 04:29:56;;;;;;;7.37;6.57;;;24.40;57.80;;;;;;5033721;28;20434;-71
2023/09/11 04:32:22;;;;;;;6.80;6.20;;;24.40;57.70;;;;;;5033723;28;20697;-71
2023/09/11 04:34:47;;;;;;;7.70;5.70;;;24.40;57.70;;;;;;5033579;28;20453;-71
2023/09/11 04:37:13;;;;;;;7.47;6.80;;;24.40;57.70;;;;;;5033576;28;20171;-71
2023/09/11 04:39:40;;;;;;;7.83;6.57;;;24.30;57.60;;;;;;5033324;28;20203;-71
2023/09/11 04:42:05;;;;;;;6.73;6.07;;;24.30;57.60;;;;;;5033524;28;20911;-71
2023/09/11 04:44:31;;;;;;;6.90;6.30;;;24.40;57.70;;;;;;5033537;28;20477;-71
2023/09/11 04:46:57;;;;;;;6.90;6.30;;;24.30;57.60;;;;;;5033447;28;20211;-71
2023/09/11 04:49:22;;;;;;;7.40;6.80;;;24.40;57.70;;;;;;5033314;28;20746;-71
2023/09/11 04:51:49;;;;;;;6.70;6.10;;;24.30;57.60;;;;;;5033665;28;20235;-71
2023/09/11 04:54:15;;;;;;;6.90;6.30;;;24.30;57.60;;;;;;5033387;28;20586;-71
2023/09/11 04:56:40;;;;;;;6.73;6.17;;;24.40;57.70;;;;;;5033380;28;20442;-71
2023/09/11 04:59:06;;;;;;;6.70;6.10;;;24.40;57.70;;;;;;5033133;28;20197;-70
2023/09/11 05:01:32;;;;;;;7.60;6.20;;;24.40;57.70;;;;;;5033188;28;20175;-71
2023/09/11 05:03:57;;;;;;;6.97;6.27;;;24.30;57.70;;;;;;5033176;28;20180;-71
2023/09/11 05:06:23;;;;;;;6.90;6.00;;;24.30;57.60;;;;;;5031728;28;20262;-71
2023/09/11 05:08:49;;;;;;;6.63;6.03;;;24.30;57.60;;;;;;5032466;28;20669;-71
2023/09/11 05:11:15;;;;;;;7.60;7.00;;;24.40;57.70;;;;;;5031874;28;20250;-71
2023/09/11 05:13:40;;;;;;;8.03;6.00;;;24.30;57.60;;;;;;5031627;28;20418;-71
2023/09/11 05:16:06;;;;;;;7.70;7.10;;;24.30;57.50;;;;;;5032468;28;20178;-71
2023/09/11 05:18:32;;;;;;;7.10;6.40;;;24.30;57.50;;;;;;5032774;28;20189;-71
2023/09/11 05:20:57;;;;;;;7.30;6.13;;;24.30;57.50;;;;;;5032575;28;20635;-71
2023/09/11 05:23:24;;;;;;;8.17;6.77;;;24.30;57.50;;;;;;5032799;28;20172;-72
2023/09/11 05:25:49;;;;;;;7.10;6.47;;;24.30;57.50;;;;;;5032856;28;20172;-71
2023/09/11 05:28:15;;;;;;;7.13;6.43;;;24.30;57.50;;;;;;5032604;28;20931;-72
2023/09/11 05:30:41;;;;;;;6.83;6.23;;;24.30;57.50;;;;;;5032603;28;20584;-71
2023/09/11 05:33:06;;;;;;;6.60;6.10;;;24.30;57.50;;;;;;5032621;28;20270;-70
2023/09/11 05:35:32;;;;;;;6.97;6.30;;;24.30;57.50;;;;;;5026646;28;20685;-71
2023/09/11 05:37:58;;;;;;;7.60;6.90;;;24.30;57.60;;;;;;5029242;28;20187;-71
2023/09/11 05:40:23;;;;;;;7.07;6.47;;;24.30;57.60;;;;;;5026463;28;20188;-71
2023/09/11 05:42:49;;;;;;;7.50;6.80;;;24.30;57.70;;;;;;5021429;28;20192;-69
2023/09/11 05:45:15;;;;;;;6.33;5.83;;;24.30;57.70;;;;;;5020793;28;20211;-72
2023/09/11 05:47:40;;;;;;;6.50;6.00;;;24.30;57.80;;;;;;5022904;28;20199;-71
2023/09/11 05:50:07;;;;;;;6.70;5.90;;;24.30;57.80;;;;;;5020794;28;20239;-70
2023/09/11 05:52:34;;;;;;;8.00;7.30;;;24.30;57.80;;;;;;5022159;28;20197;-71
2023/09/11 05:54:59;;;;;;;7.67;7.00;;;24.30;57.80;;;;;;5022464;28;20494;-71
2023/09/11 05:57:25;;;;;;;7.33;6.67;;;24.30;57.80;;;;;;5022880;28;20608;-70
2023/09/11 05:59:50;;;;;;;7.10;6.50;;;24.30;57.80;;;;;;5031934;28;20555;-70
2023/09/11 06:02:16;;;;;;;7.57;6.97;;;24.30;57.70;;;;;;5031230;28;20180;-71
2023/09/11 06:04:42;;;;;;;6.87;6.20;;;24.30;57.80;;;;;;5030377;28;20263;-72
2023/09/11 06:07:07;;;;;;;6.93;6.33;;;24.30;57.80;;;;;;5030727;28;20207;-71
2023/09/11 06:09:33;;;;;;;6.70;6.20;;;24.30;57.80;;;;;;5031158;28;20699;-72
2023/09/11 06:11:58;;;;;;;7.90;7.20;;;24.30;57.90;;;;;;5031602;28;20231;-71
2023/09/11 06:14:24;;;;;;;7.20;6.60;;;24.30;57.90;;;;;;5031639;28;20178;-72
2023/09/11 06:16:50;;;;;;;6.27;5.77;;;24.30;58.10;;;;;;5041022;28;20907;-70
2023/09/11 06:19:16;;;;;;;6.73;6.23;;;24.30;58.20;;;;;;5051065;28;20195;-71
2023/09/11 06:21:45;;;;;;;7.20;6.60;;;24.40;58.30;;;;;;5051607;28;20170;-70
2023/09/11 06:24:11;;;;;;;7.13;6.53;;;24.30;58.20;;;;;;5052012;28;20183;-70
2023/09/11 06:26:37;;;;;;;6.80;6.20;;;24.40;58.30;;;;;;5051831;28;20421;-70
2023/09/11 06:29:03;;;;;;;6.60;6.10;;;24.40;58.30;;;;;;5051880;28;20822;-71
2023/09/11 06:31:30;;;;;;;7.10;6.50;;;24.30;58.20;;;;;;5051587;28;20195;-71
2023/09/11 06:33:56;;;;;;;6.83;6.23;;;24.40;58.30;;;;;;5051601;28;20229;-71
2023/09/11 06:36:22;;;;;;;6.60;5.97;;;24.30;58.20;;;;;;5050671;28;20410;-70
2023/09/11 06:38:47;;;;;;;6.90;6.30;;;24.30;58.20;;;;;;5051541;28;20179;-70
2023/09/11 06:41:13;;;;;;;6.30;5.70;;;24.40;58.30;;;;;;5051678;28;20194;-69
2023/09/11 06:43:38;;;;;;;7.30;6.73;;;24.40;58.40;;;;;;5051733;28;20175;-70
2023/09/11 06:46:04;;;;;;;6.83;6.23;;;24.40;58.50;;;;;;5051487;28;20193;-69
2023/09/11 06:48:30;;;;;;;6.87;6.20;;;24.40;58.50;;;;;;5051115;28;20675;-70
2023/09/11 06:50:55;;;;;;;7.20;6.50;;;24.40;58.60;;;;;;5051420;28;20257;-70
2023/09/11 06:53:22;;;;;;;6.83;6.23;;;24.40;58.60;;;;;;5051652;28;20206;-70
2023/09/11 06:55:48;;;;;;;7.50;6.80;;;24.40;58.60;;;;;;5050803;28;20472;-69
2023/09/11 06:58:14;;;;;;;6.87;6.17;;;24.40;58.60;;;;;;5049893;28;20206;-69
2023/09/11 07:00:40;;;;;;;8.20;6.43;;;24.40;58.60;;;;;;5049252;28;20181;-70
2023/09/11 07:03:06;;;;;;;7.07;6.47;;;24.40;58.70;;;;;;5048788;28;20505;-70
2023/09/11 07:05:32;;;;;;;6.80;6.20;;;24.40;58.60;;;;;;5050810;28;20437;-69
2023/09/11 07:07:58;;;;;;;7.07;6.37;;;24.40;58.70;;;;;;5049368;28;20831;-69
2023/09/11 07:10:24;;;;;;;6.43;5.80;;;24.40;58.70;;;;;;5021470;28;20409;-70
2023/09/11 07:12:50;;;;;;;6.90;6.30;;;24.40;58.70;;;;;;5021800;28;20298;-70
2023/09/11 07:15:19;;;;;;;8.47;6.53;;;24.40;58.70;;;;;;5018647;28;20853;-69
2023/09/11 07:17:47;;;;;;;6.70;6.10;;;24.40;58.70;;;;;;5020212;28;20183;-70
2023/09/11 07:20:13;;;;;;;6.63;5.93;;;24.40;58.70;;;;;;5024734;28;20476;-69
2023/09/11 07:22:38;;;;;;;6.90;6.30;;;24.40;58.70;;;;;;5030729;28;20446;-70
2023/09/11 07:25:11;;;;;;;6.77;6.17;;;24.40;58.70;;;;;;5029576;28;20183;-68
2023/09/11 07:27:37;;;;;;;7.57;6.90;;;24.40;58.70;;;;;;5031226;28;20605;-69
2023/09/11 07:30:05;;;;;;;6.53;5.80;;;24.40;58.70;;;;;;5030922;28;20442;-69
2023/09/11 07:32:31;;;;;;;7.97;6.50;;;24.40;58.80;;;;;;5030636;28;20207;-69
2023/09/11 07:34:57;;;;;;;8.17;6.27;;;24.40;58.70;;;;;;5031049;28;20434;-70
2023/09/11 07:37:23;;;;;;;8.17;6.40;;;24.40;58.80;;;;;;5034723;28;20175;-68
2023/09/11 07:39:49;;;;;;;6.70;6.20;;;24.40;58.80;;;;;;5034701;28;20433;-69
2023/09/11 07:42:14;;;;;;;6.70;6.10;;;24.40;58.80;;;;;;5034672;28;20633;-69
2023/09/11 07:44:40;;;;;;;7.37;6.60;;;24.40;58.80;;;;;;5034892;28;20697;-68
2023/09/11 07:47:06;;;;;;;10.93;7.13;;;24.40;58.80;;;;;;5034604;28;20724;-69
2023/09/11 07:49:31;;;;;;;6.60;6.00;;;24.40;58.80;;;;;;5034508;28;20219;-68
2023/09/11 07:51:57;;;;;;;7.63;6.83;;;24.40;58.80;;;;;;5034425;28;20286;-68
2023/09/11 07:54:23;;;;;;;7.07;6.47;;;24.40;58.80;;;;;;5034548;28;20206;-69
2023/09/11 07:56:50;;;;;;;7.23;6.53;;;24.50;58.90;;;;;;5034176;28;20267;-69
2023/09/11 07:59:15;;;;;;;6.63;5.90;;;24.50;58.90;;;;;;5034507;28;20960;-69
2023/09/11 08:01:41;;;;;;;7.17;6.57;;;24.50;58.90;;;;;;5034388;28;20418;-69
2023/09/11 08:04:06;;;;;;;6.67;5.97;;;24.50;58.90;;;;;;5034627;28;20260;-69
2023/09/11 08:06:32;;;;;;;7.30;6.60;;;24.50;58.90;;;;;;5034288;28;20548;-69
2023/09/11 08:09:03;;;;;;;6.80;6.30;;;24.50;58.90;;;;;;5034146;28;20204;-70
2023/09/11 08:11:30;;;;;;;6.53;5.93;;;24.50;58.90;;;;;;5034120;28;20192;-69
2023/09/11 08:13:56;;;;;;;7.23;6.30;;;24.50;58.90;;;;;;5034298;28;20885;-68
2023/09/11 08:16:21;;;;;;;6.90;6.00;;;24.50;58.90;;;;;;5034317;28;20418;-68
2023/09/11 08:18:47;;;;;;;6.47;5.90;;;24.50;59.00;;;;;;5034040;28;20196;-69
2023/09/11 08:21:13;;;;;;;6.10;5.50;;;24.50;59.00;;;;;;5033979;28;20176;-70
2023/09/11 08:23:41;;;;;;;5.67;5.27;;;24.50;59.00;;;;;;5033944;28;20230;-69
2023/09/11 08:26:08;;;;;;;6.30;5.80;;;24.50;59.00;;;;;;5033818;28;20171;-70
2023/09/11 08:28:33;;;;;;;6.63;6.03;;;24.50;59.00;;;;;;5033143;28;20468;-71
2023/09/11 08:30:59;;;;;;;7.10;6.40;;;24.50;59.00;;;;;;5048165;28;20434;-69
2023/09/11 08:33:25;;;;;;;6.40;5.83;;;24.50;59.00;;;;;;5032122;28;20168;-69
2023/09/11 08:35:51;;;;;;;6.63;6.03;;;24.50;59.00;;;;;;5031862;28;20556;-70
2023/09/11 08:38:17;;;;;;;6.33;5.80;;;24.50;59.00;;;;;;5032215;28;20440;-70
2023/09/11 08:40:43;;;;;;;6.93;6.23;;;24.50;59.00;;;;;;5032528;28;20415;-69
2023/09/11 08:43:09;;;;;;;6.47;5.77;;;24.50;59.00;;;;;;5033519;28;20903;-69
2023/09/11 08:45:36;;;;;;;6.53;5.93;;;24.50;59.00;;;;;;5033554;28;20184;-69
2023/09/11 08:48:13;;;;;;;6.90;6.30;;;24.50;59.00;;;;;;5032089;28;20183;-67
2023/09/11 08:50:53;;;;;;;6.47;5.87;;;24.50;59.10;;;;;;5033550;28;20394;-67
2023/09/11 08:53:21;;;;;;;6.20;5.70;;;24.50;59.00;;;;;;5033607;28;20497;-70
2023/09/11 08:55:47;;;;;;;6.83;6.23;;;24.50;59.10;;;;;;5033158;28;20406;-68
2023/09/11 08:58:15;;;;;;;6.40;5.90;;;24.50;59.10;;;;;;5033521;28;20402;-70
2023/09/11 09:00:42;;;;;;;6.40;5.80;;;24.50;59.10;;;;;;5033340;28;20915;-69
2023/09/11 09:03:08;;;;;;;6.33;5.83;;;24.50;59.10;;;;;;5033685;28;20407;-70
2023/09/11 09:05:35;;;;;;;6.77;6.07;;;24.50;59.10;;;;;;5031976;28;20486;-69
2023/09/11 09:08:02;;;;;;;6.00;5.50;;;24.50;59.20;;;;;;5033010;28;20399;-69
2023/09/11 09:10:28;;;;;;;6.93;6.33;;;24.50;59.70;;;;;;5033080;28;20409;-68
2023/09/11 09:12:54;;;;;;;6.30;5.80;;;24.50;59.20;;;;;;5032948;28;20446;-69
2023/09/11 09:15:21;;;;;;;7.00;6.30;;;24.50;59.20;;;;;;5033008;28;20203;-68
2023/09/11 09:17:48;;;;;;;6.80;5.70;;;24.50;59.20;;;;;;5033040;28;20411;-70
2023/09/11 09:20:14;;;;;;;7.10;6.40;;;24.50;59.20;;;;;;5032840;28;20512;-70
2023/09/11 09:22:54;;;;;;;6.23;5.63;;;24.50;59.20;;;;;;5032874;28;20779;-68
2023/09/11 09:25:23;;;;;;;5.97;5.47;;;24.60;59.30;;;;;;5032924;28;20172;-68
2023/09/11 09:27:48;;;;;;;6.40;5.80;;;24.60;59.30;;;;;;5033101;28;20442;-69
2023/09/11 09:30:24;;;;;;;5.80;5.27;;;24.50;59.20;;;;;;5032469;28;20457;-69
2023/09/11 09:32:51;;;;;;;6.70;6.10;;;24.60;59.30;;;;;;5032671;28;20710;-69
2023/09/11 09:35:20;;;;;;;6.70;6.00;;;24.60;59.30;;;;;;5032660;28;20498;-69
2023/09/11 09:37:50;;;;;;;6.70;6.10;;;24.60;59.30;;;;;;5032817;28;20406;-68
2023/09/11 09:40:29;;;;;;;6.50;5.90;;;24.60;59.40;;;;;;5032813;28;20422;-67
2023/09/11 09:42:58;;;;;;;6.93;6.23;;;24.60;59.30;;;;;;5032855;28;20836;-69
2023/09/11 09:45:28;;;;;;;6.20;5.60;;;24.60;59.30;;;;;;5032732;28;20406;-70
2023/09/11 09:48:14;;;;;;;5.80;5.30;;;24.60;59.30;;;;;;5031632;28;20426;-70
2023/09/11 09:50:47;;;;;;;6.70;6.10;;;24.60;59.30;;;;;;5032379;28;20411;-70
2023/09/11 09:53:27;;;;;;;5.83;5.33;;;24.60;59.30;;;;;;5040955;28;20424;-70
2023/09/11 09:55:59;;;;;;;6.60;5.77;;;24.60;59.30;;;;;;5051804;28;20440;-70
2023/09/11 09:58:28;;;;;;;6.60;5.90;;;24.60;59.40;;;;;;5050743;28;20453;-69
2023/09/11 10:01:05;;;;;;;8.40;6.43;;;24.60;59.40;;;;;;5052232;28;20914;-70
2023/09/11 10:03:58;;;;;;;6.20;5.60;;;24.60;59.40;;;;;;5050965;28;20397;-69
2023/09/11 10:06:31;;;;;;;6.73;6.13;;;24.60;59.30;;;;;;5050215;28;20413;-70
2023/09/11 10:09:12;;;;;;;6.07;5.40;;;24.60;59.40;;;;;;5043873;28;20499;-71
2023/09/11 10:11:40;;;;;;;6.30;5.80;;;24.60;59.40;;;;;;5027630;28;20809;-69
2023/09/11 10:14:08;;;;;;;7.57;6.83;;;24.60;59.40;;;;;;5030939;28;20838;-71
2023/09/11 10:16:34;;;;;;;6.30;5.73;;;24.60;59.40;;;;;;5032342;28;20413;-70
2023/09/11 10:19:01;;;;;;;6.70;6.13;;;24.60;59.40;;;;;;5030351;28;20430;-70
2023/09/11 10:21:27;;;;;;;7.00;6.40;;;24.60;59.40;;;;;;5031337;28;20606;-69
2023/09/11 10:23:53;;;;;;;6.50;5.90;;;24.60;59.40;;;;;;5030409;28;20422;-70
2023/09/11 10:26:48;;;;;;;6.87;6.20;;;24.60;59.40;;;;;;5030317;28;20454;-70
2023/09/11 10:29:47;;;;;;;6.60;6.00;;;24.60;59.40;;;;;;5030153;28;20450;-70
2023/09/11 10:32:22;;;;;;;6.40;5.90;;;24.60;59.40;;;;;;5029845;28;20466;-71
2023/09/11 10:34:51;;;;;;;7.87;7.10;;;24.60;59.40;;;;;;5029031;28;20805;-69
2023/09/11 10:37:22;;;;;;;8.60;7.80;;;24.60;59.40;;;;;;5019533;28;20423;-70
2023/09/11 10:39:49;;;;;;;8.00;7.30;;;24.60;59.50;;;;;;5036724;28;20437;-69
2023/09/11 10:42:15;;;;;;;8.70;7.90;;;24.60;59.50;;;;;;5051087;28;20504;-71
2023/09/11 10:44:42;;;;;;;10.47;7.93;;;24.60;59.50;;;;;;5051322;28;20449;-70
2023/09/11 10:47:11;;;;;;;9.27;8.37;;;24.60;59.50;;;;;;5051283;28;20414;-70
2023/09/11 10:49:37;;;;;;;10.27;9.30;;;24.60;59.50;;;;;;5051083;28;20867;-71
2023/09/11 10:52:05;;;;;;;9.60;8.80;;;24.70;59.60;;;;;;5050599;28;20457;-70
2023/09/11 10:54:31;;;;;;;9.00;8.20;;;24.70;59.70;;;;;;5049574;28;20445;-71
2023/09/11 10:56:57;;;;;;;10.43;9.43;;;24.70;59.70;;;;;;5050857;28;20441;-71
2023/09/11 10:59:26;;;;;;;11.27;10.27;;;24.70;59.80;;;;;;5049463;28;20203;-69
2023/09/11 11:01:52;;;;;;;10.83;9.93;;;24.70;59.80;;;;;;5050835;28;20258;-70
2023/09/11 11:04:18;;;;;;;10.30;9.40;;;24.70;59.80;;;;;;5050840;28;20409;-70
2023/09/11 11:06:49;;;;;;;12.50;11.30;;;24.70;59.80;;;;;;5050897;28;20405;-70
2023/09/11 11:09:36;;;;;;;11.23;10.33;;;24.70;59.80;;;;;;5050609;28;20191;-70
2023/09/11 11:12:06;;;;;;;13.00;11.80;;;24.70;59.90;;;;;;5050703;28;20873;-68
2023/09/11 11:14:32;;;;;;;13.03;11.73;;;24.70;59.90;;;;;;5050873;28;20409;-71
2023/09/11 11:17:08;;;;;;;13.77;12.63;;;24.70;59.90;;;;;;5049382;28;20952;-71
2023/09/11 11:19:39;;;;;;;12.80;11.60;;;24.70;60.00;;;;;;5050212;28;20436;-70
2023/09/11 11:22:07;;;;;;;12.77;11.77;;;24.70;60.00;;;;;;5051135;28;20417;-70
2023/09/11 11:24:49;;;;;;;14.97;13.70;;;24.70;60.00;;;;;;5050790;28;20444;-70
2023/09/11 11:27:15;;;;;;;15.87;14.40;;;24.80;60.20;;;;;;5050771;28;20520;-70
2023/09/11 11:29:41;;;;;;;18.50;16.57;;;24.80;60.10;;;;;;5050674;28;20532;-69
2023/09/11 11:32:10;;;;;;;18.73;16.20;;;24.70;60.70;;;;;;5050681;28;20729;-70
2023/09/11 11:34:38;;;;;;;21.67;17.60;;;24.80;60.00;;;;;;5050712;28;20413;-71
2023/09/11 11:37:05;;;;;;;24.40;18.40;;;24.80;59.90;;;;;;5050883;28;20414;-70
2023/09/11 11:39:38;;;;;;;23.53;18.43;;;24.80;59.90;;;;;;5050579;28;20429;-71
2023/09/11 11:42:05;;;;;;;21.50;18.20;;;24.80;59.90;;;;;;5050551;28;20390;-71
2023/09/11 11:44:33;;;;;;;23.73;18.13;;;24.80;59.90;;;;;;5050571;28;20410;-71
2023/09/11 11:46:59;;;;;;;22.30;17.20;;;24.80;59.90;;;;;;5050868;28;20756;-70
2023/09/11 11:49:25;;;;;;;18.67;15.70;;;24.80;60.00;;;;;;5050372;28;21011;-71
2023/09/11 11:51:51;;;;;;;22.83;14.83;;;24.80;60.00;;;;;;5050446;28;20449;-71
2023/09/11 11:54:23;;;;;;;21.33;15.27;;;24.80;60.00;;;;;;5050751;28;20870;-71
2023/09/11 11:56:54;;;;;;;22.83;14.57;;;24.80;60.10;;;;;;5050646;28;20412;-71
2023/09/11 11:59:20;;;;;;;15.03;13.40;;;24.80;60.00;;;;;;5050485;28;20425;-71
2023/09/11 12:01:46;;;;;;;16.03;13.90;;;24.80;60.00;;;;;;5050445;28;20932;-71
2023/09/11 12:04:11;;;;;;;14.33;12.77;;;24.80;60.00;;;;;;5049363;28;20179;-70
2023/09/11 12:06:37;;;;;;;15.73;11.57;;;24.80;60.00;;;;;;5050599;28;20254;-71
2023/09/11 12:09:03;;;;;;;12.13;10.83;;;24.90;60.10;;;;;;5050303;28;20289;-70
2023/09/11 12:11:30;;;;;;;12.63;11.33;;;24.90;60.20;;;;;;5038553;28;20199;-71
2023/09/11 12:13:56;;;;;;;13.37;12.17;;;24.90;60.20;;;;;;5030152;28;20466;-71
2023/09/11 12:16:22;;;;;;;11.93;10.60;;;24.90;60.30;;;;;;5028667;28;20406;-71
2023/09/11 12:18:48;;;;;;;14.30;12.40;;;24.90;60.40;;;;;;5029649;28;20437;-71
2023/09/11 12:21:14;;;;;;;12.00;10.80;;;24.90;60.40;;;;;;5031085;28;20182;-71
2023/09/11 12:23:39;;;;;;;10.20;9.27;;;24.90;60.40;;;;;;5034257;28;20187;-71
2023/09/11 12:26:05;;;;;;;12.63;11.33;;;24.90;60.30;;;;;;5033943;28;20175;-70
2023/09/11 12:28:32;;;;;;;10.40;9.40;;;24.90;60.30;;;;;;5033854;28;20227;-69
2023/09/11 12:30:58;;;;;;;10.77;9.67;;;24.90;60.30;;;;;;5034154;28;20490;-71
2023/09/11 12:33:26;;;;;;;9.90;8.80;;;24.90;60.20;;;;;;5033910;28;20847;-71
2023/09/11 12:35:56;;;;;;;11.10;10.00;;;24.90;60.20;;;;;;5033802;28;20168;-70
2023/09/11 12:38:23;;;;;;;10.73;9.83;;;24.90;60.30;;;;;;5033743;28;20427;-71
2023/09/11 12:40:50;;;;;;;9.70;8.70;;;24.90;60.30;;;;;;5032562;28;20418;-69
2023/09/11 12:43:18;;;;;;;9.67;8.77;;;24.90;60.30;;;;;;5033625;28;20406;-72